Time;durP1;ratioP1;P1;durP2;ratioP2;P2;SDS_P1;SDS_P2;PMS_P1;PMS_P2;Temp;Humidity;BMP_temperature;BMP_pressure;BME280_temperature;BME280_humidity;BME280_pressure;Samples;Min_cycle;Max_cycle;Signal;HPM_P1;HPM_P2
2022/07/25 00:00:22;;;;;;;10.95;2.47;;;;;;;17.01;83.12;99771.97;4869238;29;20024;-73
2022/07/25 00:02:48;;;;;;;7.43;2.20;;;;;;;16.94;83.25;99769.72;4885257;29;20092;-73
2022/07/25 00:05:13;;;;;;;9.68;2.67;;;;;;;16.92;83.64;99775.56;4877304;29;20061;-74
2022/07/25 00:07:39;;;;;;;9.30;2.70;;;;;;;16.89;83.95;99778.97;4862964;29;20040;-75
2022/07/25 00:10:05;;;;;;;10.82;2.20;;;;;;;16.88;84.06;99774.59;4876223;29;20025;-74
2022/07/25 00:12:30;;;;;;;21.13;3.40;;;;;;;16.82;84.23;99778.63;4894672;29;20025;-73
2022/07/25 00:14:56;;;;;;;10.88;2.38;;;;;;;16.81;84.08;99773.44;4875276;29;20145;-74
2022/07/25 00:17:21;;;;;;;8.25;3.08;;;;;;;16.81;84.03;99774.22;4882825;29;20044;-73
2022/07/25 00:19:47;;;;;;;15.90;3.55;;;;;;;16.82;84.04;99763.97;4872863;29;20040;-74
2022/07/25 00:22:12;;;;;;;9.18;2.88;;;;;;;16.81;84.28;99757.66;4878413;29;20025;-73
2022/07/25 00:24:37;;;;;;;9.25;2.80;;;;;;;16.81;84.30;99763.19;4878126;29;20055;-74
2022/07/25 00:27:03;;;;;;;9.27;2.30;;;;;;;16.85;84.04;99764.16;4883062;29;20064;-74
2022/07/25 00:29:29;;;;;;;8.93;2.88;;;;;;;16.90;84.09;99747.44;4863180;29;20037;-74
2022/07/25 00:31:54;;;;;;;12.88;3.25;;;;;;;16.98;83.86;99750.53;4882410;29;20084;-74
2022/07/25 00:34:19;;;;;;;12.98;2.97;;;;;;;17.02;83.63;99738.50;4861413;29;20481;-74
2022/07/25 00:36:45;;;;;;;8.57;2.40;;;;;;;16.99;83.66;99741.13;4888704;29;20028;-75
2022/07/25 00:39:11;;;;;;;9.60;2.70;;;;;;;16.97;84.03;99733.16;4853859;29;20060;-76
2022/07/25 00:41:36;;;;;;;12.18;3.35;;;;;;;16.95;83.89;99735.44;4866847;29;20040;-74
2022/07/25 00:44:02;;;;;;;12.07;3.10;;;;;;;16.93;84.43;99735.75;4885483;29;20040;-74
2022/07/25 00:46:27;;;;;;;7.95;2.25;;;;;;;16.92;84.33;99736.91;4862216;29;20040;-73
2022/07/25 00:48:53;;;;;;;12.10;2.65;;;;;;;16.91;84.35;99720.66;4882303;29;20052;-74
2022/07/25 00:51:18;;;;;;;12.15;2.58;;;;;;;16.89;84.34;99729.28;4899025;29;20028;-73
2022/07/25 00:53:44;;;;;;;17.58;3.10;;;;;;;16.85;84.65;99722.75;4885801;29;20044;-73
2022/07/25 00:56:10;;;;;;;12.40;2.88;;;;;;;16.84;84.52;99721.13;4884375;29;20171;-73
2022/07/25 00:58:35;;;;;;;16.15;2.78;;;;;;;16.81;84.87;99707.97;4885170;29;20076;-74
2022/07/25 01:01:02;;;;;;;6.03;2.35;;;;;;;16.83;84.75;99705.69;4885952;29;20016;-74
2022/07/25 01:03:28;;;;;;;13.60;3.33;;;;;;;16.85;84.86;99703.41;4878425;29;20036;-74
2022/07/25 01:05:53;;;;;;;9.07;2.72;;;;;;;16.86;84.89;99704.22;4885679;29;20025;-74
2022/07/25 01:08:20;;;;;;;15.52;3.20;;;;;;;16.86;84.84;99707.78;4878546;29;20381;-73
2022/07/25 01:10:53;;;;;;;9.77;2.50;;;;;;;16.86;84.92;99710.53;4865471;29;20029;-74
2022/07/25 01:13:19;;;;;;;10.68;2.95;;;;;;;16.86;84.76;99705.03;4875767;29;20025;-74
2022/07/25 01:15:44;;;;;;;8.63;2.70;;;;;;;16.94;84.68;99711.72;4868620;29;20526;-74
2022/07/25 01:18:10;;;;;;;12.40;2.45;;;;;;;16.97;84.48;99696.44;4887340;29;20024;-74
2022/07/25 01:20:36;;;;;;;9.70;3.28;;;;;;;17.01;84.27;99701.00;4891067;29;20357;-73
2022/07/25 01:23:01;;;;;;;8.20;2.60;;;;;;;17.05;84.14;99707.47;4884794;29;20104;-75
2022/07/25 01:25:27;;;;;;;8.90;2.85;;;;;;;17.07;83.94;99712.69;4879086;29;20478;-74
2022/07/25 01:27:53;;;;;;;12.77;2.88;;;;;;;17.06;83.86;99708.31;4878982;29;20149;-73
2022/07/25 01:30:20;;;;;;;14.10;3.45;;;;;;;17.04;83.94;99705.88;4894561;29;20032;-74
2022/07/25 01:32:46;;;;;;;9.30;3.05;;;;;;;17.04;83.97;99707.81;4869549;29;20080;-74
2022/07/25 01:35:13;;;;;;;17.40;2.90;;;;;;;17.00;83.90;99695.81;4878531;29;20559;-74
2022/07/25 01:37:39;;;;;;;9.82;2.38;;;;;;;16.92;84.22;99689.13;4868589;29;20039;-73
2022/07/25 01:40:05;;;;;;;12.13;2.92;;;;;;;16.85;84.39;99691.53;4863519;29;20395;-75
2022/07/25 01:42:31;;;;;;;14.95;3.88;;;;;;;16.79;84.65;99688.13;4882599;29;20367;-73
2022/07/25 01:44:57;;;;;;;14.75;3.33;;;;;;;16.72;84.93;99682.31;4864606;29;20096;-73
2022/07/25 01:47:22;;;;;;;14.95;2.80;;;;;;;16.67;85.18;99679.72;4878731;29;20028;-73
2022/07/25 01:49:48;;;;;;;7.97;2.38;;;;;;;16.64;85.18;99688.63;4885914;29;20136;-73
2022/07/25 01:52:14;;;;;;;13.73;3.00;;;;;;;16.65;85.16;99698.56;4882204;29;20089;-72
2022/07/25 01:54:40;;;;;;;11.57;3.13;;;;;;;16.73;85.16;99683.91;4886878;29;20033;-73
2022/07/25 01:57:05;;;;;;;8.57;3.25;;;;;;;16.77;84.79;99679.38;4886029;29;20385;-73
2022/07/25 01:59:31;;;;;;;17.35;3.03;;;;;;;16.77;84.68;99679.38;4900786;29;20045;-73
2022/07/25 02:01:56;;;;;;;11.18;3.17;;;;;;;16.73;84.57;99684.75;4898416;29;20021;-72
2022/07/25 02:04:22;;;;;;;11.98;3.15;;;;;;;16.67;84.59;99680.50;4847417;29;20037;-72
2022/07/25 02:06:48;;;;;;;10.75;3.95;;;;;;;16.55;84.98;99675.63;4881074;29;20033;-73
2022/07/25 02:09:13;;;;;;;12.50;3.22;;;;;;;16.48;85.21;99686.34;4893807;29;20037;-73
2022/07/25 02:11:39;;;;;;;9.75;2.50;;;;;;;16.38;85.75;99683.91;4894788;29;20065;-73
2022/07/25 02:14:04;;;;;;;12.35;2.92;;;;;;;16.35;86.41;99684.56;4882103;29;20055;-73
2022/07/25 02:16:30;;;;;;;15.75;3.00;;;;;;;16.32;86.42;99679.69;4877309;29;20040;-75
2022/07/25 02:18:55;;;;;;;13.48;3.63;;;;;;;16.23;86.36;99683.22;4868518;29;20051;-75
2022/07/25 02:21:21;;;;;;;9.68;2.75;;;;;;;16.18;86.63;99686.16;4889519;29;20380;-73
2022/07/25 02:23:46;;;;;;;13.77;3.10;;;;;;;16.14;86.61;99692.66;4890171;29;20092;-73
2022/07/25 02:26:13;;;;;;;19.90;3.08;;;;;;;16.11;86.44;99691.34;4904849;29;20080;-74
2022/07/25 02:28:39;;;;;;;13.95;3.13;;;;;;;16.05;86.28;99687.13;4886240;29;20085;-73
2022/07/25 02:31:04;;;;;;;14.27;3.35;;;;;;;16.07;86.62;99701.38;4877086;29;20041;-74
2022/07/25 02:33:30;;;;;;;14.07;2.67;;;;;;;16.08;86.17;99691.97;4902900;29;20040;-74
2022/07/25 02:35:56;;;;;;;11.82;3.65;;;;;;;16.06;86.10;99694.22;4891268;29;20040;-75
2022/07/25 02:38:21;;;;;;;13.50;2.30;;;;;;;16.03;85.78;99689.38;4883520;29;20089;-75
2022/07/25 02:40:51;;;;;;;6.75;2.65;;;;;;;16.04;85.79;99697.31;4881547;29;20033;-74
2022/07/25 02:43:18;;;;;;;20.13;3.35;;;;;;;16.10;85.60;99683.38;4882332;29;20025;-74
2022/07/25 02:45:44;;;;;;;11.15;2.60;;;;;;;16.16;84.66;99693.94;4880600;29;20033;-74
2022/07/25 02:48:09;;;;;;;8.85;2.47;;;;;;;16.20;83.96;99689.41;4893605;29;20047;-74
2022/07/25 02:50:35;;;;;;;12.30;3.05;;;;;;;16.30;83.68;99687.50;4879253;29;20047;-73
2022/07/25 02:53:00;;;;;;;13.38;2.38;;;;;;;16.37;82.93;99685.06;4897138;29;20037;-74
2022/07/25 02:55:26;;;;;;;9.77;3.00;;;;;;;16.34;82.45;99681.00;4903915;29;20031;-74
2022/07/25 02:57:51;;;;;;;13.60;2.38;;;;;;;16.28;82.40;99678.69;4900922;29;20143;-73
2022/07/25 03:00:18;;;;;;;13.43;3.05;;;;;;;16.18;82.61;99675.13;4869672;29;20036;-73
2022/07/25 03:02:44;;;;;;;9.40;2.58;;;;;;;16.09;82.78;99671.56;4884373;29;20114;-74
2022/07/25 03:05:11;;;;;;;15.60;2.60;;;;;;;16.04;82.81;99679.97;4896409;29;20036;-74
2022/07/25 03:07:37;;;;;;;23.55;3.03;;;;;;;15.99;83.16;99678.19;4878769;29;20032;-73
2022/07/25 03:10:04;;;;;;;16.00;3.38;;;;;;;16.05;83.19;99676.09;4868435;29;20077;-73
2022/07/25 03:12:31;;;;;;;10.13;2.45;;;;;;;16.12;82.93;99670.91;4874076;29;20060;-74
2022/07/25 03:14:57;;;;;;;12.13;2.60;;;;;;;16.13;82.39;99661.47;4868516;29;20028;-71
2022/07/25 03:17:23;;;;;;;12.30;2.85;;;;;;;16.08;82.70;99661.66;4860250;29;20032;-72
2022/07/25 03:19:48;;;;;;;10.13;2.80;;;;;;;16.09;82.97;99666.03;4894849;29;20029;-73
2022/07/25 03:22:13;;;;;;;10.32;2.47;;;;;;;16.05;83.09;99645.75;4904824;29;20036;-74
2022/07/25 03:24:39;;;;;;;11.25;2.88;;;;;;;15.99;83.41;99644.25;4901548;29;20032;-71
2022/07/25 03:27:04;;;;;;;13.85;2.25;;;;;;;15.94;83.53;99641.66;4851783;29;20028;-71
2022/07/25 03:29:30;;;;;;;9.55;2.55;;;;;;;15.87;83.66;99653.97;4899860;29;20148;-72
2022/07/25 03:31:55;;;;;;;8.75;2.20;;;;;;;15.84;84.29;99648.28;4893939;29;20036;-72
2022/07/25 03:34:20;;;;;;;13.77;2.50;;;;;;;15.79;84.25;99652.00;4900055;29;20682;-72
2022/07/25 03:36:46;;;;;;;7.85;2.72;;;;;;;15.84;84.31;99662.91;4855134;29;20033;-72
2022/07/25 03:39:13;;;;;;;13.77;2.90;;;;;;;15.91;84.08;99667.13;4871619;29;20037;-72
2022/07/25 03:41:38;;;;;;;10.68;3.35;;;;;;;15.93;83.87;99673.94;4874704;29;20445;-73
2022/07/25 03:44:04;;;;;;;10.18;3.15;;;;;;;15.99;83.54;99671.84;4879451;29;20048;-71
2022/07/25 03:46:30;;;;;;;9.02;2.45;;;;;;;16.07;83.26;99679.31;4883646;29;20032;-71
2022/07/25 03:48:55;;;;;;;13.32;2.75;;;;;;;16.13;83.08;99675.28;4899234;29;20116;-72
2022/07/25 03:51:20;;;;;;;10.93;2.55;;;;;;;16.19;82.66;99679.53;4883884;29;20096;-72
2022/07/25 03:54:01;;;;;;;13.75;2.65;;;;;;;16.23;82.40;99674.97;4884629;29;20029;-73
2022/07/25 03:56:36;;;;;;;8.85;2.28;;;;;;;16.28;82.25;99674.03;4872331;29;20063;-72
2022/07/25 03:59:01;;;;;;;;;;;;;;;16.32;81.97;99674.16;4882895;29;20060;-71
2022/07/25 04:01:26;;;;;;;15.70;2.50;;;;;;;16.35;81.60;99676.28;4875845;29;19924;-72
2022/07/25 04:03:52;;;;;;;12.25;2.55;;;;;;;16.34;81.34;99667.19;4879022;29;20052;-72
2022/07/25 04:06:18;;;;;;;21.30;3.03;;;;;;;16.36;81.09;99681.47;4895953;29;20048;-72
2022/07/25 04:08:43;;;;;;;14.13;2.63;;;;;;;16.35;81.05;99668.84;4891312;29;20096;-72
2022/07/25 04:11:09;;;;;;;8.85;2.25;;;;;;;16.35;81.04;99679.88;4872906;29;20097;-73
2022/07/25 04:13:34;;;;;;;10.57;2.63;;;;;;;16.37;80.75;99683.09;4872976;29;20484;-74
2022/07/25 04:16:00;;;;;;;7.30;2.10;;;;;;;16.40;80.48;99684.41;4875694;29;20032;-74
2022/07/25 04:18:25;;;;;;;6.15;1.85;;;;;;;16.40;79.86;99681.66;4899109;29;20064;-74
2022/07/25 04:20:50;;;;;;;14.65;2.45;;;;;;;16.39;79.80;99680.03;4871167;29;20063;-75
2022/07/25 04:23:16;;;;;;;9.75;2.08;;;;;;;16.38;78.91;99670.13;4891180;29;20124;-74
2022/07/25 04:25:41;;;;;;;8.88;2.03;;;;;;;16.39;78.81;99663.47;4866028;29;20040;-74
2022/07/25 04:28:07;;;;;;;8.32;1.70;;;;;;;16.37;77.92;99669.31;4881591;29;20073;-74
2022/07/25 04:30:32;;;;;;;10.38;1.88;;;;;;;16.31;78.49;99656.81;4885801;29;20123;-73
2022/07/25 04:32:58;;;;;;;12.15;2.45;;;;;;;16.05;79.47;99652.06;4853056;29;20033;-73
2022/07/25 04:35:23;;;;;;;11.65;1.83;;;;;;;15.83;80.16;99655.75;4880209;29;20168;-74
2022/07/25 04:37:49;;;;;;;6.60;1.48;;;;;;;15.73;79.98;99664.28;4878205;29;20042;-74
2022/07/25 04:40:14;;;;;;;6.75;1.65;;;;;;;15.69;80.10;99669.59;4866282;29;20033;-74
2022/07/25 04:42:40;;;;;;;4.57;1.98;;;;;;;15.66;79.91;99663.94;4849002;29;20104;-74
2022/07/25 04:45:05;;;;;;;9.55;1.88;;;;;;;15.69;80.14;99672.38;4879401;29;20052;-73
2022/07/25 04:47:31;;;;;;;6.03;1.80;;;;;;;15.84;79.66;99682.19;4895603;29;20025;-74
2022/07/25 04:49:56;;;;;;;6.47;1.52;;;;;;;16.00;79.37;99679.81;4876442;29;20062;-72
2022/07/25 04:52:22;;;;;;;10.23;1.88;;;;;;;16.13;78.75;99683.53;4880259;29;20033;-74
2022/07/25 04:54:47;;;;;;;6.60;1.45;;;;;;;16.23;78.44;99683.22;4844300;29;20064;-74
2022/07/25 04:57:13;;;;;;;7.15;1.92;;;;;;;16.30;78.23;99676.44;4855965;29;20029;-74
2022/07/25 04:59:38;;;;;;;9.30;1.65;;;;;;;16.34;78.24;99685.69;4883129;29;20063;-74
2022/07/25 05:02:04;;;;;;;13.70;2.00;;;;;;;16.38;77.95;99681.16;4856518;29;20028;-73
2022/07/25 05:04:29;;;;;;;6.43;1.92;;;;;;;16.40;78.04;99687.97;4866230;29;20504;-74
2022/07/25 05:06:55;;;;;;;5.43;1.42;;;;;;;16.43;76.85;99686.53;4867347;29;20032;-73
2022/07/25 05:09:21;;;;;;;8.38;1.27;;;;;;;16.42;76.38;99695.94;4880259;29;20039;-72
2022/07/25 05:11:46;;;;;;;7.35;0.88;;;;;;;16.40;74.86;99687.19;4881871;29;20123;-74
2022/07/25 05:14:12;;;;;;;5.55;1.50;;;;;;;16.35;74.75;99690.91;4889488;29;20041;-73
2022/07/25 05:16:38;;;;;;;3.85;1.23;;;;;;;16.34;74.65;99683.75;4864071;29;20084;-71
2022/07/25 05:19:03;;;;;;;4.43;1.05;;;;;;;16.42;74.31;99690.41;4889223;29;20025;-71
2022/07/25 05:21:29;;;;;;;6.03;1.05;;;;;;;16.47;74.28;99686.69;4876398;29;20025;-71
2022/07/25 05:23:54;;;;;;;6.97;1.40;;;;;;;16.51;73.74;99684.91;4899306;29;20068;-71
2022/07/25 05:26:20;;;;;;;5.35;1.05;;;;;;;16.58;74.41;99690.75;4894968;29;21481;-72
2022/07/25 05:28:45;;;;;;;5.53;1.10;;;;;;;16.65;73.98;99693.03;4875149;29;20068;-72
2022/07/25 05:31:10;;;;;;;2.88;1.17;;;;;;;16.70;74.07;99695.63;4877217;29;20044;-71
2022/07/25 05:33:36;;;;;;;6.53;1.50;;;;;;;16.67;74.27;99690.75;4873754;29;20117;-70
2022/07/25 05:36:03;;;;;;;4.55;1.20;;;;;;;16.62;74.61;99688.97;4846895;29;20468;-70
2022/07/25 05:38:28;;;;;;;4.80;1.48;;;;;;;16.49;74.89;99684.44;4851499;29;20155;-71
2022/07/25 05:40:54;;;;;;;7.20;1.10;;;;;;;16.32;75.15;99690.72;4898369;29;20032;-71
2022/07/25 05:43:19;;;;;;;5.00;1.10;;;;;;;16.22;74.79;99698.19;4864244;29;20384;-71
2022/07/25 05:45:48;;;;;;;5.43;0.98;;;;;;;16.15;74.95;99681.28;4892141;29;20088;-69
2022/07/25 05:48:14;;;;;;;3.78;0.90;;;;;;;16.16;75.22;99693.94;4890161;29;20112;-71
2022/07/25 05:50:40;;;;;;;3.58;0.98;;;;;;;16.20;75.44;99692.16;4885739;29;20051;-71
2022/07/25 05:53:05;;;;;;;4.43;0.98;;;;;;;16.21;75.19;99702.06;4898790;29;20492;-72
2022/07/25 05:55:31;;;;;;;3.55;1.00;;;;;;;16.27;75.04;99693.66;4853313;29;20068;-71
2022/07/25 05:57:56;;;;;;;6.28;1.20;;;;;;;16.31;74.91;99689.09;4849905;29;20033;-72
2022/07/25 06:00:22;;;;;;;5.78;1.83;;;;;;;16.39;74.06;99696.59;4880993;29;20065;-71
2022/07/25 06:02:47;;;;;;;3.55;0.60;;;;;;;16.69;72.40;99693.97;4865899;29;20420;-71
2022/07/25 06:05:13;;;;;;;2.67;0.55;;;;;;;17.00;70.73;99701.31;4889736;29;20044;-72
2022/07/25 06:07:38;;;;;;;1.70;0.70;;;;;;;17.16;69.85;99702.44;4866746;29;20124;-72
2022/07/25 06:10:04;;;;;;;9.68;1.15;;;;;;;17.20;69.61;99697.88;4869788;29;20064;-74
2022/07/25 06:12:32;;;;;;;1.10;0.40;;;;;;;17.18;69.87;99694.63;4873095;29;20033;-73
2022/07/25 06:14:58;;;;;;;2.33;0.57;;;;;;;17.20;70.24;99700.66;4858305;29;20020;-73
2022/07/25 06:17:28;;;;;;;2.50;1.10;;;;;;;17.20;70.52;99691.53;4880365;29;20031;-73
2022/07/25 06:19:56;;;;;;;4.82;0.80;;;;;;;17.33;70.65;99698.00;4865143;29;20032;-74
2022/07/25 06:22:22;;;;;;;4.40;0.93;;;;;;;17.38;68.96;99720.75;4874230;29;20033;-71
2022/07/25 06:24:47;;;;;;;8.02;1.00;;;;;;;17.36;68.51;99713.91;4877024;29;20036;-72
2022/07/25 06:27:13;;;;;;;4.35;0.88;;;;;;;17.42;68.54;99707.06;4877911;29;20060;-73
2022/07/25 06:29:38;;;;;;;4.55;0.60;;;;;;;17.40;68.28;99706.59;4867790;29;20084;-73
2022/07/25 06:32:04;;;;;;;1.63;0.65;;;;;;;17.49;68.43;99721.19;4875265;29;20060;-72
2022/07/25 06:34:30;;;;;;;3.72;0.85;;;;;;;17.53;68.50;99718.59;4876095;29;20035;-73
2022/07/25 06:36:56;;;;;;;5.10;1.13;;;;;;;17.51;68.52;99716.16;4871460;29;20032;-73
2022/07/25 06:39:25;;;;;;;1.85;0.55;;;;;;;17.53;68.71;99719.41;4879646;29;20029;-74
2022/07/25 06:41:51;;;;;;;2.70;0.80;;;;;;;17.53;68.75;99726.88;4891950;29;20631;-73
2022/07/25 06:44:16;;;;;;;2.53;0.50;;;;;;;17.62;67.92;99736.78;4871241;29;20029;-72
2022/07/25 06:46:42;;;;;;;4.40;1.20;;;;;;;17.62;67.53;99725.72;4900005;29;20051;-72
2022/07/25 06:49:07;;;;;;;3.70;0.93;;;;;;;17.70;67.58;99734.31;4864929;29;20469;-70
2022/07/25 06:51:33;;;;;;;4.93;0.70;;;;;;;17.81;66.27;99724.50;4865327;29;20036;-70
2022/07/25 06:53:59;;;;;;;3.47;0.70;;;;;;;17.85;66.55;99728.22;4876600;29;20119;-71
2022/07/25 06:56:24;;;;;;;5.68;0.88;;;;;;;17.91;66.34;99726.13;4885425;29;20392;-70
2022/07/25 06:58:52;;;;;;;5.70;0.75;;;;;;;17.95;65.93;99733.41;4861044;29;20024;-72
2022/07/25 07:01:17;;;;;;;2.17;0.70;;;;;;;17.94;65.86;99736.53;4890009;29;20061;-72
2022/07/25 07:03:43;;;;;;;2.53;0.57;;;;;;;17.86;66.33;99723.50;4880702;29;20147;-74
2022/07/25 07:06:09;;;;;;;3.08;0.80;;;;;;;17.87;66.61;99725.13;4873929;29;20044;-75
2022/07/25 07:08:35;;;;;;;6.03;0.70;;;;;;;18.10;65.88;99714.63;4901160;29;20028;-75
2022/07/25 07:11:01;;;;;;;2.78;0.50;;;;;;;18.26;65.07;99721.22;4867585;29;20035;-75
2022/07/25 07:13:26;;;;;;;2.33;0.50;;;;;;;18.50;64.75;99719.78;4871022;29;20037;-75
2022/07/25 07:15:52;;;;;;;3.50;0.80;;;;;;;18.55;64.23;99727.88;4878646;29;20119;-75
2022/07/25 07:18:21;;;;;;;5.10;0.70;;;;;;;18.44;63.97;99710.84;4897204;29;20041;-76
2022/07/25 07:20:46;;;;;;;2.63;0.43;;;;;;;18.56;63.88;99723.94;4887966;29;20036;-74
2022/07/25 07:23:13;;;;;;;2.28;0.68;;;;;;;18.59;62.56;99734.34;4876498;29;20033;-75
2022/07/25 07:25:38;;;;;;;2.95;0.70;;;;;;;18.55;63.17;99738.94;4883360;29;20119;-76
2022/07/25 07:28:06;;;;;;;5.70;0.85;;;;;;;18.54;63.01;99725.44;4870770;29;20048;-78
2022/07/25 07:30:34;;;;;;;3.03;0.70;;;;;;;18.67;62.60;99730.72;4858215;29;20032;-75
2022/07/25 07:33:02;;;;;;;4.30;0.60;;;;;;;18.78;62.36;99724.78;4870547;29;20052;-76
2022/07/25 07:35:27;;;;;;;7.18;1.00;;;;;;;18.95;61.87;99735.75;4881998;29;20554;-77
2022/07/25 07:37:53;;;;;;;6.13;0.57;;;;;;;19.07;61.53;99736.91;4898025;29;20056;-77
2022/07/25 07:41:00;;;;;;;6.68;0.80;;;;;;;19.28;61.05;99734.13;4882491;29;20032;-77
2022/07/25 07:43:30;;;;;;;0.88;0.40;;;;;;;19.51;58.95;99729.00;4879518;29;20060;-75
2022/07/25 07:45:59;;;;;;;3.92;0.70;;;;;;;19.61;58.75;99723.00;4893934;29;20017;-77
2022/07/25 07:48:26;;;;;;;3.97;0.63;;;;;;;19.94;58.37;99747.09;4870479;29;20055;-76
2022/07/25 07:50:51;;;;;;;1.17;0.32;;;;;;;20.08;57.79;99740.38;4855150;29;20041;-78
2022/07/25 07:53:17;;;;;;;2.17;0.60;;;;;;;20.23;57.58;99759.13;4889111;29;20064;-76
2022/07/25 07:55:42;;;;;;;2.75;0.60;;;;;;;20.08;57.63;99745.94;4852915;29;20072;-74
2022/07/25 07:58:09;;;;;;;2.50;0.55;;;;;;;19.93;57.64;99751.03;4874022;29;20040;-74
2022/07/25 08:00:38;;;;;;;1.13;0.40;;;;;;;20.16;56.79;99742.25;4880597;29;20068;-75
2022/07/25 08:03:07;;;;;;;1.48;0.60;;;;;;;20.21;56.65;99748.38;4878761;29;20116;-75
2022/07/25 08:05:39;;;;;;;2.60;0.85;;;;;;;20.13;56.84;99731.84;4883073;29;20024;-76
2022/07/25 08:08:06;;;;;;;4.50;0.57;;;;;;;20.45;56.71;99746.72;4882581;29;20032;-76
2022/07/25 08:10:35;;;;;;;1.85;0.40;;;;;;;20.60;55.78;99761.88;4878199;29;20017;-74
2022/07/25 08:13:02;;;;;;;0.73;0.20;;;;;;;20.30;56.42;99748.25;4897395;29;20502;-75
2022/07/25 08:15:28;;;;;;;4.28;0.50;;;;;;;20.09;56.92;99747.56;4854331;29;20556;-75
2022/07/25 08:17:53;;;;;;;3.45;0.55;;;;;;;19.88;57.44;99765.13;4866097;29;20032;-74
2022/07/25 08:20:23;;;;;;;5.60;0.70;;;;;;;19.63;58.73;99765.06;4883871;29;20037;-76
2022/07/25 08:22:49;;;;;;;2.75;0.45;;;;;;;19.34;59.12;99743.84;4884269;29;20033;-75
2022/07/25 08:25:18;;;;;;;2.17;0.25;;;;;;;19.31;59.21;99741.75;4881064;29;20036;-75
2022/07/25 08:27:52;;;;;;;1.08;0.35;;;;;;;19.53;58.73;99755.19;4890595;29;20028;-74
2022/07/25 08:30:18;;;;;;;6.57;0.88;;;;;;;19.67;58.50;99754.09;4862689;29;20068;-75
2022/07/25 08:32:55;;;;;;;1.80;0.47;;;;;;;19.94;57.84;99762.94;4878801;29;20029;-75
2022/07/25 08:35:23;;;;;;;1.30;0.28;;;;;;;20.00;56.88;99773.44;4898918;29;20063;-74
2022/07/25 08:37:49;;;;;;;3.28;0.40;;;;;;;19.99;57.17;99774.63;4892493;29;20029;-74
2022/07/25 08:40:16;;;;;;;2.53;0.50;;;;;;;20.13;56.54;99777.06;4880520;29;20036;-74
2022/07/25 08:42:42;;;;;;;4.22;0.50;;;;;;;20.25;56.52;99779.03;4874062;29;20033;-73
2022/07/25 08:45:11;;;;;;;3.40;0.80;;;;;;;20.32;55.97;99779.25;4881262;29;20037;-74
2022/07/25 08:47:38;;;;;;;3.95;0.60;;;;;;;20.26;55.92;99766.75;4876013;29;20038;-74
2022/07/25 08:50:17;;;;;;;3.63;0.38;;;;;;;20.27;55.35;99762.84;4880138;29;20029;-75
2022/07/25 08:52:46;;;;;;;0.95;0.40;;;;;;;20.04;56.56;99762.50;4893717;29;20028;-73
2022/07/25 08:55:21;;;;;;;2.33;0.40;;;;;;;19.90;56.96;99762.81;4893500;29;20036;-74
2022/07/25 08:57:47;;;;;;;;;;;;;;;19.91;57.66;99778.31;4881065;29;20218;-73
2022/07/25 09:00:21;;;;;;;2.60;0.40;;;;;;;19.76;57.92;99778.97;4870238;29;19980;-74
2022/07/25 09:03:05;;;;;;;4.20;0.50;;;;;;;19.56;58.23;99758.47;4884505;29;20028;-74
2022/07/25 09:05:32;;;;;;;2.40;0.57;;;;;;;19.58;58.81;99773.59;4875600;29;20044;-74
2022/07/25 09:08:06;;;;;;;0.93;0.25;;;;;;;19.54;59.22;99789.31;4877693;29;20048;-73
2022/07/25 09:10:32;;;;;;;0.55;0.20;;;;;;;19.57;59.38;99788.63;4879164;29;20582;-71
2022/07/25 09:13:13;;;;;;;1.42;0.40;;;;;;;19.59;59.37;99777.97;4886045;29;20097;-74
2022/07/25 09:15:45;;;;;;;2.08;0.35;;;;;;;19.75;58.98;99791.22;4877858;29;20024;-73
2022/07/25 09:18:13;;;;;;;3.35;0.47;;;;;;;20.05;58.26;99776.00;4890970;29;20028;-72
2022/07/25 09:20:50;;;;;;;3.55;0.50;;;;;;;20.52;57.52;99804.47;4879621;29;20024;-73
2022/07/25 09:23:34;;;;;;;2.92;0.80;;;;;;;21.13;56.54;99794.41;4895013;29;20024;-72
2022/07/25 09:26:13;;;;;;;2.78;0.57;;;;;;;21.49;55.47;99795.44;4888198;29;20025;-72
2022/07/25 09:28:43;;;;;;;2.15;0.40;;;;;;;21.78;54.58;99797.81;4890698;29;20075;-72
2022/07/25 09:31:08;;;;;;;1.65;0.40;;;;;;;22.18;53.61;99806.38;4892434;29;20035;-72
2022/07/25 09:33:43;;;;;;;0.75;0.30;;;;;;;22.19;52.11;99799.66;4879873;29;20033;-71
2022/07/25 09:36:10;;;;;;;0.35;0.20;;;;;;;21.84;53.32;99803.16;4884649;29;20037;-72
2022/07/25 09:38:36;;;;;;;3.85;0.40;;;;;;;21.65;52.77;99814.97;4880620;29;20180;-72
2022/07/25 09:41:02;;;;;;;0.63;0.22;;;;;;;21.43;53.41;99815.13;4889697;29;20084;-73
2022/07/25 09:43:42;;;;;;;1.38;0.50;;;;;;;21.20;54.16;99820.47;4867867;29;20036;-72
2022/07/25 09:46:10;;;;;;;4.38;0.35;;;;;;;20.85;55.06;99828.53;4876164;29;20060;-71
2022/07/25 09:48:38;;;;;;;7.05;0.30;;;;;;;20.46;57.20;99822.50;4890304;29;20125;-71
2022/07/25 09:51:05;;;;;;;3.63;0.50;;;;;;;20.09;60.30;99841.94;4866283;29;20123;-74
2022/07/25 09:53:31;;;;;;;1.23;0.43;;;;;;;19.14;68.20;99842.47;4886616;29;20048;-72
2022/07/25 09:56:01;;;;;;;1.90;0.60;;;;;;;18.38;72.60;99835.94;4861402;29;20049;-74
2022/07/25 09:58:28;;;;;;;1.95;0.50;;;;;;;18.43;73.21;99852.34;4866828;29;20043;-74
2022/07/25 10:01:01;;;;;;;1.65;0.22;;;;;;;18.64;73.18;99844.91;4877448;29;20071;-74
2022/07/25 10:03:45;;;;;;;1.27;0.43;;;;;;;19.21;69.47;99842.75;4881271;29;20043;-73
2022/07/25 10:06:36;;;;;;;1.55;0.45;;;;;;;20.43;65.30;99851.81;4872496;29;20052;-74
2022/07/25 10:09:02;;;;;;;3.85;0.45;;;;;;;21.52;61.36;99858.72;4887038;29;20053;-73
2022/07/25 10:11:29;;;;;;;1.95;0.60;;;;;;;22.51;58.66;99867.31;4850012;29;20846;-72
2022/07/25 10:13:55;;;;;;;1.55;0.40;;;;;;;24.01;53.54;99857.81;4848409;29;20066;-72
2022/07/25 10:16:24;;;;;;;8.38;0.50;;;;;;;24.13;52.66;99865.19;4882782;29;20043;-74
2022/07/25 10:18:51;;;;;;;1.92;0.40;;;;;;;23.92;51.61;99865.63;4887464;29;20099;-74
2022/07/25 10:21:17;;;;;;;1.83;0.50;;;;;;;23.93;52.25;99869.22;4873761;29;20044;-74
2022/07/25 10:23:45;;;;;;;2.00;0.40;;;;;;;23.90;51.43;99872.75;4869253;29;20120;-73
2022/07/25 10:26:18;;;;;;;1.45;0.50;;;;;;;24.68;50.06;99866.94;4877734;29;20116;-73
2022/07/25 10:28:49;;;;;;;2.70;0.55;;;;;;;26.77;45.06;99878.56;4891647;29;20042;-73
2022/07/25 10:31:23;;;;;;;2.13;0.70;;;;;;;27.46;42.50;99885.38;4893126;29;20040;-73
2022/07/25 10:33:50;;;;;;;;;;;;;;;26.55;43.86;99896.41;4878992;29;20115;-74
2022/07/25 10:36:17;;;;;;;2.45;1.02;;;;;;;25.57;44.66;99889.75;4897276;29;19919;-73
2022/07/25 10:38:44;;;;;;;2.83;0.65;;;;;;;24.70;46.34;99886.91;4880144;29;20052;-73
2022/07/25 10:41:15;;;;;;;2.35;0.50;;;;;;;24.41;48.13;99875.25;4890441;29;20699;-74
2022/07/25 10:43:44;;;;;;;1.48;0.40;;;;;;;24.78;47.49;99887.84;4879046;29;20396;-73
2022/07/25 10:46:12;;;;;;;1.55;0.45;;;;;;;25.06;46.46;99881.88;4890871;29;20128;-74
2022/07/25 10:48:39;;;;;;;1.23;0.40;;;;;;;25.42;45.98;99882.38;4882968;29;20475;-73
2022/07/25 10:51:12;;;;;;;0.60;0.30;;;;;;;25.49;45.32;99893.66;4884876;29;20037;-73
2022/07/25 10:53:46;;;;;;;1.85;0.47;;;;;;;25.31;45.98;99893.44;4888425;29;20036;-74
2022/07/25 10:56:16;;;;;;;2.10;0.68;;;;;;;25.04;46.52;99898.22;4877815;29;20033;-74
2022/07/25 10:58:58;;;;;;;1.65;0.40;;;;;;;24.46;47.19;99900.09;4889338;29;20059;-72
2022/07/25 11:01:31;;;;;;;0.35;0.30;;;;;;;23.51;49.17;99899.47;4865704;29;20056;-72
2022/07/25 11:04:13;;;;;;;3.30;0.50;;;;;;;22.70;51.67;99905.59;4864727;29;20040;-72
2022/07/25 11:06:40;;;;;;;2.50;0.43;;;;;;;22.09;53.45;99913.19;4885584;29;20060;-75
2022/07/25 11:09:17;;;;;;;0.90;0.40;;;;;;;21.52;56.55;99908.78;4877095;29;20032;-74
2022/07/25 11:11:48;;;;;;;1.98;0.50;;;;;;;21.23;57.18;99910.69;4886662;29;20092;-74
2022/07/25 11:14:21;;;;;;;2.58;0.50;;;;;;;20.83;55.98;99914.22;4893809;29;20036;-73
2022/07/25 11:16:50;;;;;;;1.48;0.50;;;;;;;20.28;60.67;99916.31;4880458;29;20072;-72
2022/07/25 11:19:35;;;;;;;1.15;0.57;;;;;;;19.83;61.57;99921.53;4879638;29;20418;-72
2022/07/25 11:22:03;;;;;;;1.15;0.50;;;;;;;20.03;60.77;99917.09;4885142;29;20469;-71
2022/07/25 11:24:40;;;;;;;2.75;0.90;;;;;;;20.77;59.48;99915.59;4854925;29;20033;-71
2022/07/25 11:27:08;;;;;;;1.23;0.40;;;;;;;23.68;51.13;99916.94;4881334;29;20123;-73
2022/07/25 11:29:36;;;;;;;1.27;0.45;;;;;;;29.10;39.73;99927.38;4886540;29;20551;-72
2022/07/25 11:32:11;;;;;;;1.75;0.40;;;;;;;34.58;29.42;99938.19;4880630;29;20085;-73